createdAt,value
2023-05-19T00:02:56.304Z,50.28
2023-05-19T00:05:59.193Z,50.39
2023-05-19T00:09:05.567Z,52.75
2023-05-19T00:12:08.110Z,51.89
2023-05-19T00:15:10.747Z,51.71
2023-05-19T00:18:14.230Z,52.01
2023-05-19T00:21:16.957Z,52.56
2023-05-19T00:24:18.921Z,52.94
2023-05-19T00:27:20.992Z,52.99
2023-05-19T00:30:23.142Z,53.05
2023-05-19T00:33:25.060Z,53.77
2023-05-19T00:36:27.111Z,54.08
2023-05-19T00:39:29.053Z,54.24
2023-05-19T00:42:31.062Z,54.76
2023-05-19T00:45:33.171Z,54.98
2023-05-19T00:48:35.048Z,55.32
2023-05-19T00:51:46.296Z,55.75
2023-05-19T00:54:49.368Z,55.61
2023-05-19T00:57:51.502Z,56.02
2023-05-19T01:00:53.469Z,56.76
2023-05-19T01:03:59.211Z,56.86
2023-05-19T01:07:01.348Z,56.69
2023-05-19T01:10:03.631Z,56.24
2023-05-19T01:13:06.672Z,55.64
2023-05-19T01:16:42.726Z,54.90
2023-05-19T01:20:16.946Z,54.54
2023-05-19T01:23:57.161Z,54.32
2023-05-19T01:27:24.096Z,54.03
2023-05-19T01:30:33.700Z,54.00
2023-05-19T01:33:36.520Z,53.77
2023-05-19T01:36:41.041Z,54.16
2023-05-19T01:39:44.972Z,55.18
2023-05-19T01:42:47.338Z,55.07
2023-05-19T01:45:49.472Z,54.88
2023-05-19T01:48:52.761Z,54.72
2023-05-19T01:51:54.983Z,54.78
2023-05-19T01:54:57.342Z,54.42
2023-05-19T01:57:59.195Z,54.37
2023-05-19T02:01:07.026Z,54.17
2023-05-19T02:04:15.087Z,53.90
2023-05-19T02:07:58.563Z,54.15
2023-05-19T02:11:09.638Z,53.80
2023-05-19T02:14:29.859Z,53.86
2023-05-19T02:17:36.748Z,54.03
2023-05-19T02:20:40.217Z,54.00
2023-05-19T02:23:42.505Z,53.94
2023-05-19T02:26:44.487Z,54.09
2023-05-19T02:29:46.414Z,53.92
2023-05-19T02:32:48.436Z,53.68
2023-05-19T02:35:50.972Z,54.00
2023-05-19T02:38:52.977Z,53.40
2023-05-19T02:41:54.892Z,53.32
2023-05-19T02:44:56.954Z,53.54
2023-05-19T02:47:59.659Z,53.38
2023-05-19T02:51:01.668Z,53.90
2023-05-19T02:54:03.792Z,53.09
2023-05-19T02:57:06.855Z,52.68
2023-05-19T03:00:09.557Z,52.62
2023-05-19T03:03:11.524Z,53.25
2023-05-19T03:06:14.343Z,52.55
2023-05-19T03:09:16.363Z,52.60
2023-05-19T03:12:18.316Z,52.41
2023-05-19T03:15:22.989Z,52.52
2023-05-19T03:18:26.506Z,52.73
2023-05-19T03:21:28.680Z,52.45
2023-05-19T03:24:30.935Z,52.43
2023-05-19T03:27:32.941Z,52.20
2023-05-19T03:30:34.928Z,52.04
2023-05-19T03:33:43.095Z,51.94
2023-05-19T03:36:45.299Z,51.84
2023-05-19T03:39:51.213Z,51.39
2023-05-19T03:42:54.626Z,51.21
2023-05-19T03:45:57.075Z,50.69
2023-05-19T03:49:17.678Z,50.28
2023-05-19T03:52:38.745Z,49.76
2023-05-19T03:55:57.118Z,49.14
2023-05-19T03:58:59.561Z,48.33
2023-05-19T04:02:01.511Z,47.65
2023-05-19T04:05:05.231Z,47.00
2023-05-19T04:08:07.198Z,46.51
2023-05-19T04:11:09.248Z,45.76
2023-05-19T04:14:11.186Z,45.64
2023-05-19T04:17:13.142Z,45.33
2023-05-19T04:20:15.153Z,44.64
2023-05-19T04:23:17.131Z,44.47
2023-05-19T04:26:21.778Z,42.98
2023-05-19T04:29:24.342Z,43.04
2023-05-19T04:32:26.327Z,42.25
2023-05-19T04:35:30.240Z,42.32
2023-05-19T04:38:35.106Z,41.17
2023-05-19T04:41:40.344Z,40.24
2023-05-19T04:44:42.647Z,38.48
2023-05-19T04:47:47.023Z,37.75
2023-05-19T04:50:49.628Z,37.17
2023-05-19T04:53:52.728Z,36.93
2023-05-19T04:56:55.351Z,35.62
2023-05-19T05:00:05.187Z,34.42
2023-05-19T05:03:14.742Z,34.05
2023-05-19T05:06:16.792Z,33.60
2023-05-19T05:09:20.007Z,33.13
2023-05-19T05:12:22.615Z,32.70
2023-05-19T05:15:25.411Z,32.41
2023-05-19T05:18:27.504Z,30.10
2023-05-19T05:21:29.886Z,31.14
2023-05-19T05:24:33.004Z,31.08
2023-05-19T05:27:38.332Z,30.79
2023-05-19T05:30:42.184Z,30.78
2023-05-19T05:33:45.016Z,29.69
2023-05-19T05:36:48.155Z,28.74
2023-05-19T05:39:50.393Z,28.30
2023-05-19T05:42:52.418Z,27.34
2023-05-19T05:45:57.510Z,26.74
2023-05-19T05:49:00.026Z,26.49
2023-05-19T05:52:06.180Z,26.23
2023-05-19T05:55:17.528Z,25.85
2023-05-19T05:58:21.357Z,25.66
2023-05-19T06:01:24.936Z,24.96
2023-05-19T06:04:28.575Z,24.88
2023-05-19T06:07:30.796Z,25.08
2023-05-19T06:10:33.693Z,25.03
2023-05-19T06:13:36.962Z,24.63
2023-05-19T06:16:42.049Z,25.25
2023-05-19T06:19:44.563Z,24.67
2023-05-19T06:22:46.550Z,24.50
2023-05-19T06:25:49.828Z,24.30
2023-05-19T06:28:52.398Z,23.92
2023-05-19T06:31:54.999Z,23.92
2023-05-19T06:34:57.127Z,24.08
2023-05-19T06:38:00.306Z,23.17
2023-05-19T06:41:02.232Z,23.46
2023-05-19T06:44:07.022Z,23.72
2023-05-19T06:47:10.214Z,23.81
2023-05-19T06:50:13.246Z,23.50
2023-05-19T06:53:19.721Z,23.37
2023-05-19T06:56:23.000Z,22.49
2023-05-19T06:59:26.017Z,21.93
2023-05-19T07:02:28.206Z,22.86
2023-05-19T07:05:30.618Z,22.56
2023-05-19T07:08:37.190Z,22.22
2023-05-19T07:11:40.963Z,21.78
2023-05-19T07:14:45.051Z,22.28
2023-05-19T07:17:48.066Z,22.16
2023-05-19T07:20:52.316Z,22.14
2023-05-19T07:23:55.829Z,21.16
2023-05-19T07:26:58.377Z,21.71
2023-05-19T07:30:00.271Z,21.50
2023-05-19T07:33:02.204Z,20.42
2023-05-19T07:36:05.984Z,20.08
2023-05-19T07:39:08.027Z,20.88
2023-05-19T07:42:10.249Z,20.45
2023-05-19T07:45:12.137Z,20.22
2023-05-19T07:48:14.244Z,20.23
2023-05-19T07:51:16.306Z,19.70
2023-05-19T07:54:18.527Z,19.56
2023-05-19T07:57:20.440Z,19.90
2023-05-19T08:00:22.737Z,20.00
2023-05-19T08:03:25.847Z,20.33
2023-05-19T08:06:30.106Z,20.09
2023-05-19T08:09:32.094Z,20.35
2023-05-19T08:12:34.029Z,19.43
2023-05-19T08:15:35.964Z,18.73
2023-05-19T08:18:37.916Z,18.94
2023-05-19T08:21:39.922Z,18.88
2023-05-19T08:24:43.363Z,18.69
2023-05-19T08:27:45.764Z,18.45
2023-05-19T08:30:47.751Z,18.86
2023-05-19T08:33:49.656Z,19.28
2023-05-19T08:36:51.626Z,18.85
2023-05-19T08:39:53.496Z,18.58
2023-05-19T08:42:55.477Z,18.89
2023-05-19T08:46:00.802Z,19.29
2023-05-19T08:49:10.378Z,19.25
2023-05-19T08:52:33.465Z,18.82
2023-05-19T08:55:53.397Z,19.20
2023-05-19T08:59:00.402Z,18.36
2023-05-19T09:02:04.182Z,18.46
2023-05-19T09:05:07.421Z,18.63
2023-05-19T09:08:09.521Z,19.13
2023-05-19T09:11:11.896Z,19.78
2023-05-19T09:14:13.862Z,19.94
2023-05-19T09:17:15.977Z,20.47
2023-05-19T09:20:17.962Z,20.58
2023-05-19T09:23:21.057Z,20.71
2023-05-19T09:26:23.575Z,21.11
2023-05-19T09:29:28.761Z,21.32
2023-05-19T09:32:31.601Z,21.66
2023-05-19T09:35:35.249Z,21.69
2023-05-19T09:38:38.935Z,22.02
2023-05-19T09:41:41.232Z,22.43
2023-05-19T09:44:43.814Z,22.12
2023-05-19T09:47:45.750Z,22.03
2023-05-19T09:50:49.398Z,22.19
2023-05-19T09:53:53.103Z,22.15
2023-05-19T09:57:03.685Z,22.07
2023-05-19T10:00:12.079Z,21.54
2023-05-19T10:03:16.573Z,22.04
2023-05-19T10:06:19.868Z,22.16
2023-05-19T10:09:25.988Z,22.72
2023-05-19T10:12:28.304Z,23.42
2023-05-19T10:15:31.004Z,22.92
2023-05-19T10:18:33.890Z,23.13
2023-05-19T10:21:36.631Z,23.47
2023-05-19T10:24:38.505Z,23.32
2023-05-19T10:27:41.847Z,23.15
2023-05-19T10:30:47.902Z,23.30
2023-05-19T10:34:07.996Z,23.75
2023-05-19T10:37:41.873Z,23.75
2023-05-19T10:40:51.884Z,24.01
2023-05-19T10:44:09.690Z,24.52
2023-05-19T10:47:12.351Z,24.59
2023-05-19T10:50:15.762Z,24.71
2023-05-19T10:53:19.519Z,24.78
2023-05-19T10:56:36.438Z,24.94
2023-05-19T10:59:39.432Z,25.18
2023-05-19T11:02:44.420Z,25.65
2023-05-19T11:05:46.716Z,25.61
2023-05-19T11:08:53.838Z,26.25
2023-05-19T11:11:55.777Z,25.81
2023-05-19T11:14:59.499Z,26.02
2023-05-19T11:18:02.409Z,26.13
2023-05-19T11:21:04.517Z,26.44
2023-05-19T11:24:09.073Z,26.45
2023-05-19T11:27:20.892Z,26.93
2023-05-19T11:30:23.274Z,26.77
2023-05-19T11:33:29.351Z,26.99
2023-05-19T11:36:31.925Z,26.93
2023-05-19T11:39:34.072Z,27.14
2023-05-19T11:42:37.416Z,27.96
2023-05-19T11:45:39.558Z,27.52
2023-05-19T11:48:41.742Z,28.00
2023-05-19T11:51:45.443Z,27.75
2023-05-19T11:54:48.554Z,27.99
2023-05-19T11:58:04.405Z,28.10
2023-05-19T12:01:07.030Z,28.15
2023-05-19T12:04:12.243Z,28.21
2023-05-19T12:07:23.340Z,27.99
2023-05-19T12:10:27.367Z,27.87
2023-05-19T12:13:30.530Z,26.96
2023-05-19T12:16:35.745Z,27.23
2023-05-19T12:19:37.953Z,27.00
2023-05-19T12:22:40.104Z,26.39
2023-05-19T12:25:42.074Z,26.15
2023-05-19T12:28:45.358Z,25.50
2023-05-19T12:31:47.638Z,25.68
2023-05-19T12:34:50.216Z,25.01
2023-05-19T12:37:52.224Z,24.75
2023-05-19T12:40:54.273Z,24.70
2023-05-19T12:44:17.763Z,27.33
2023-05-19T12:47:20.506Z,24.67
2023-05-19T12:50:22.403Z,23.84
2023-05-19T12:53:26.607Z,24.04
2023-05-19T12:56:29.011Z,23.79
2023-05-19T12:59:38.877Z,22.78
2023-05-19T13:02:58.076Z,22.44
2023-05-19T13:06:00.148Z,22.13
2023-05-19T13:09:02.015Z,21.41
2023-05-19T13:12:04.866Z,22.19
2023-05-19T13:15:07.371Z,21.63
2023-05-19T13:18:13.704Z,21.22
2023-05-19T13:21:15.966Z,21.97
2023-05-19T13:24:17.922Z,21.81
2023-05-19T13:27:19.790Z,21.29
2023-05-19T13:30:22.134Z,21.98
2023-05-19T13:33:24.069Z,21.96
2023-05-19T13:36:26.629Z,22.19
2023-05-19T13:39:28.616Z,22.35
2023-05-19T13:42:31.816Z,21.80
2023-05-19T13:45:33.858Z,22.25
2023-05-19T13:48:35.861Z,22.58
2023-05-19T13:51:37.951Z,22.58
2023-05-19T13:54:39.719Z,20.92
2023-05-19T13:57:43.434Z,21.78
2023-05-19T14:00:46.086Z,21.22
2023-05-19T14:03:48.318Z,21.73
2023-05-19T14:06:50.483Z,22.75
2023-05-19T14:09:52.688Z,21.56
2023-05-19T14:13:29.046Z,21.44
2023-05-19T14:16:17.448Z,22.09
2023-05-19T14:19:19.522Z,21.73
2023-05-19T14:22:21.435Z,21.35
2023-05-19T14:25:23.318Z,21.40
2023-05-19T14:28:25.246Z,21.80
2023-05-19T14:31:27.006Z,22.03
2023-05-19T14:34:29.714Z,22.03
2023-05-19T14:37:32.382Z,21.75
2023-05-19T14:40:36.969Z,21.94
2023-05-19T14:43:38.883Z,21.60
2023-05-19T14:46:40.716Z,21.53
2023-05-19T14:49:42.536Z,21.15
2023-05-19T14:52:44.526Z,20.86
2023-05-19T14:55:51.867Z,20.54
2023-05-19T14:58:53.742Z,21.09
2023-05-19T15:01:55.552Z,20.77
2023-05-19T15:04:57.338Z,21.04
2023-05-19T15:07:59.197Z,21.04
2023-05-19T15:11:00.894Z,21.37
2023-05-19T15:14:02.961Z,21.44
2023-05-19T15:17:04.853Z,21.55
2023-05-19T15:20:07.405Z,21.39
2023-05-19T15:23:09.322Z,21.39
2023-05-19T15:26:11.268Z,21.42
2023-05-19T15:29:13.156Z,21.47
2023-05-19T15:32:14.882Z,22.44
2023-05-19T15:35:16.868Z,22.48
2023-05-19T15:38:19.194Z,22.30
2023-05-19T15:41:21.796Z,23.08
2023-05-19T15:44:23.597Z,22.99
2023-05-19T15:47:26.035Z,23.24
2023-05-19T15:50:27.951Z,23.58
2023-05-19T15:53:29.775Z,23.85
2023-05-19T15:56:31.606Z,24.21
2023-05-19T15:59:33.524Z,24.30
2023-05-19T16:02:36.006Z,24.86
2023-05-19T16:05:37.911Z,24.90
2023-05-19T16:08:39.843Z,25.12
2023-05-19T16:11:41.530Z,25.45
2023-05-19T16:14:43.405Z,25.42
2023-05-19T16:17:45.330Z,25.70
2023-05-19T16:20:47.170Z,26.12
2023-05-19T16:23:49.098Z,26.18
2023-05-19T16:26:53.583Z,26.48
2023-05-19T16:29:55.574Z,26.87
2023-05-19T16:32:57.525Z,27.00
2023-05-19T16:36:00.034Z,28.54
2023-05-19T16:39:01.853Z,29.89
2023-05-19T16:42:06.716Z,29.74
2023-05-19T16:45:09.102Z,30.12
2023-05-19T16:48:11.355Z,30.88
2023-05-19T16:51:13.253Z,31.51
2023-05-19T16:54:15.067Z,32.39
2023-05-19T16:57:16.961Z,33.00
2023-05-19T17:00:19.196Z,33.72
2023-05-19T17:03:21.056Z,35.60
2023-05-19T17:06:22.900Z,34.71
2023-05-19T17:09:27.431Z,35.43
2023-05-19T17:12:29.327Z,35.93
2023-05-19T17:15:31.697Z,36.20
2023-05-19T17:18:33.560Z,37.03
2023-05-19T17:21:35.383Z,37.54
2023-05-19T17:24:37.233Z,37.88
2023-05-19T17:27:39.289Z,38.06
2023-05-19T17:30:41.459Z,38.61
2023-05-19T17:33:43.320Z,40.44
2023-05-19T17:36:45.305Z,39.15
2023-05-19T17:39:47.211Z,39.35
2023-05-19T17:42:49.064Z,40.05
2023-05-19T17:45:51.003Z,39.95
2023-05-19T17:48:52.885Z,40.68
2023-05-19T17:51:55.084Z,41.04
2023-05-19T17:54:57.300Z,41.42
2023-05-19T17:57:59.212Z,43.34
2023-05-19T18:01:01.384Z,42.90
2023-05-19T18:04:03.892Z,43.16
2023-05-19T18:07:09.024Z,42.56
2023-05-19T18:10:11.840Z,42.84
2023-05-19T18:13:14.380Z,42.90
2023-05-19T18:16:16.580Z,43.17
2023-05-19T18:19:18.513Z,43.58
2023-05-19T18:22:20.690Z,44.15
2023-05-19T18:25:25.353Z,44.11
2023-05-19T18:28:27.176Z,44.19
2023-05-19T18:31:29.203Z,44.35
2023-05-19T18:34:31.172Z,44.65
2023-05-19T18:37:34.586Z,44.63
2023-05-19T18:40:36.586Z,44.65
2023-05-19T18:43:39.141Z,45.20
2023-05-19T18:46:41.245Z,45.45
2023-05-19T18:49:43.159Z,45.33
2023-05-19T18:52:44.993Z,45.39
2023-05-19T18:55:46.848Z,45.63
2023-05-19T18:58:48.716Z,45.44
2023-05-19T19:01:50.671Z,45.81
2023-05-19T19:04:52.577Z,46.11
2023-05-19T19:07:54.545Z,46.32
2023-05-19T19:11:00.228Z,46.27
2023-05-19T19:14:02.379Z,46.11
2023-05-19T19:17:04.389Z,46.25
2023-05-19T19:20:09.648Z,46.49
2023-05-19T19:23:11.794Z,46.34
2023-05-19T19:26:13.582Z,46.17
2023-05-19T19:29:16.746Z,45.98
2023-05-19T19:32:18.660Z,45.96
2023-05-19T19:35:20.930Z,45.85
2023-05-19T19:38:22.803Z,45.88
2023-05-19T19:41:26.201Z,45.80
2023-05-19T19:44:27.994Z,45.79
2023-05-19T19:47:29.905Z,45.89
2023-05-19T19:50:32.933Z,46.04
2023-05-19T19:53:34.903Z,46.11
2023-05-19T19:56:36.825Z,46.27
2023-05-19T19:59:38.694Z,46.66
2023-05-19T20:02:55.266Z,46.40
2023-05-19T20:06:03.127Z,46.42
2023-05-19T20:09:05.310Z,46.63
2023-05-19T20:12:07.425Z,46.78
2023-05-19T20:15:09.812Z,47.14
2023-05-19T20:18:12.157Z,47.36
2023-05-19T20:21:14.056Z,47.40
2023-05-19T20:24:15.958Z,47.54
2023-05-19T20:27:17.885Z,47.50
2023-05-19T20:30:19.911Z,48.06
2023-05-19T20:33:21.789Z,47.78
2023-05-19T20:36:23.603Z,46.85
2023-05-19T20:39:25.587Z,45.37
2023-05-19T20:42:27.429Z,44.64
2023-05-19T20:45:29.349Z,44.31
2023-05-19T20:48:31.597Z,43.96
2023-05-19T20:51:33.528Z,43.60
2023-05-19T20:54:35.588Z,43.21
2023-05-19T20:57:37.529Z,42.95
2023-05-19T21:00:39.448Z,42.55
2023-05-19T21:03:41.369Z,43.07
2023-05-19T21:06:43.338Z,43.20
2023-05-19T21:09:46.688Z,43.51
2023-05-19T21:12:48.757Z,43.66
2023-05-19T21:15:50.774Z,43.67
2023-05-19T21:18:52.771Z,43.85
2023-05-19T21:21:54.584Z,44.04
2023-05-19T21:24:57.050Z,44.46
2023-05-19T21:27:58.996Z,44.21
2023-05-19T21:31:00.966Z,43.89
2023-05-19T21:34:04.234Z,43.78
2023-05-19T21:37:06.057Z,44.22
2023-05-19T21:40:08.516Z,44.71
2023-05-19T21:43:11.163Z,45.31
2023-05-19T21:46:13.175Z,44.77
2023-05-19T21:49:15.131Z,45.34
2023-05-19T21:52:16.929Z,45.67
2023-05-19T21:55:18.840Z,45.07
2023-05-19T21:58:20.743Z,44.92
2023-05-19T22:01:22.724Z,44.67
2023-05-19T22:04:24.685Z,44.27
2023-05-19T22:07:27.098Z,44.27
2023-05-19T22:10:29.061Z,44.17
2023-05-19T22:13:31.985Z,43.87
2023-05-19T22:16:35.207Z,43.96
2023-05-19T22:19:37.489Z,43.95
2023-05-19T22:22:39.377Z,43.96
2023-05-19T22:25:41.550Z,44.04
2023-05-19T22:28:43.472Z,44.13
2023-05-19T22:31:45.397Z,44.20
2023-05-19T22:34:47.281Z,44.82
2023-05-19T22:37:49.237Z,44.75
2023-05-19T22:40:51.217Z,44.95
2023-05-19T22:43:53.022Z,45.33
2023-05-19T22:46:54.942Z,45.48
2023-05-19T22:49:57.258Z,45.61
2023-05-19T22:52:59.270Z,45.88
2023-05-19T22:56:01.170Z,46.05
2023-05-19T22:59:03.016Z,46.30
2023-05-19T23:02:05.810Z,46.70
2023-05-19T23:05:08.352Z,47.34
2023-05-19T23:08:10.170Z,47.56
2023-05-19T23:11:12.111Z,47.88
2023-05-19T23:14:13.985Z,48.82
2023-05-19T23:17:15.765Z,48.29
2023-05-19T23:20:17.685Z,48.96
2023-05-19T23:23:19.564Z,49.04
2023-05-19T23:26:21.719Z,49.63
2023-05-19T23:29:23.622Z,49.78
2023-05-19T23:32:25.577Z,49.68
2023-05-19T23:35:27.505Z,50.08
2023-05-19T23:38:29.381Z,50.65
2023-05-19T23:41:31.534Z,50.82
2023-05-19T23:44:33.339Z,51.07
2023-05-19T23:47:35.201Z,51.78
2023-05-19T23:50:37.026Z,52.14
2023-05-19T23:53:39.187Z,53.41
2023-05-19T23:56:41.088Z,52.76
2023-05-19T23:59:43.166Z,54.01
